Time;durP1;ratioP1;P1;durP2;ratioP2;P2;SDS_P1;SDS_P2;PMS_P1;PMS_P2;Temp;Humidity;BMP_temperature;BMP_pressure;BME280_temperature;BME280_humidity;BME280_pressure;Samples;Min_cycle;Max_cycle;Signal;HPM_P1;HPM_P2
2020/12/03 00:02:03;;;;;;;37.33;20.47;;;;;;;0.62;79.16;100690.09;1757420;79;21178;-57
2020/12/03 00:04:30;;;;;;;37.17;20.17;;;;;;;0.59;79.12;100687.44;1755252;79;21409;-56
2020/12/03 00:06:59;;;;;;;36.47;18.87;;;;;;;0.55;79.14;100686.95;1723833;80;21222;-58
2020/12/03 00:09:27;;;;;;;40.63;19.33;;;;;;;0.53;79.22;100686.94;1758407;79;21371;-56
2020/12/03 00:11:58;;;;;;;35.60;17.43;;;;;;;0.54;79.24;100683.42;1753941;80;21221;-55
2020/12/03 00:14:25;;;;;;;34.90;17.93;;;;;;;0.55;79.27;100690.49;1720890;81;21218;-56
2020/12/03 00:16:53;;;;;;;37.10;19.17;;;;;;;0.58;79.28;100686.55;1728649;80;21221;-54
2020/12/03 00:19:23;;;;;;;41.50;20.70;;;;;;;0.60;79.32;100682.13;1758822;79;21123;-58
2020/12/03 00:21:55;;;;;;;39.77;21.87;;;;;;;0.63;79.28;100684.81;1759207;79;21215;-55
2020/12/03 00:24:26;;;;;;;45.70;21.67;;;;;;;0.63;79.29;100681.27;1756785;79;21071;-55
2020/12/03 00:26:53;;;;;;;42.13;21.03;;;;;;;0.63;79.25;100682.59;1745622;79;21472;-55
2020/12/03 00:29:20;;;;;;;37.40;20.40;;;;;;;0.62;79.19;100682.14;1698700;82;21823;-55
2020/12/03 00:31:50;;;;;;;36.60;19.57;;;;;;;0.58;79.22;100677.28;1722100;81;21486;-58
2020/12/03 00:34:17;;;;;;;44.33;21.33;;;;;;;0.57;79.24;100676.83;1745855;80;21472;-58
2020/12/03 00:36:44;;;;;;;37.50;20.77;;;;;;;0.56;79.30;100680.35;1724082;81;21244;-56
2020/12/03 00:39:13;;;;;;;41.97;19.67;;;;;;;0.58;79.31;100673.74;1723872;81;21575;-58
2020/12/03 00:41:43;;;;;;;37.30;18.37;;;;;;;0.59;79.32;100677.73;1727410;81;21593;-55
2020/12/03 00:44:10;;;;;;;38.17;20.47;;;;;;;0.60;79.37;100674.18;1741016;80;21609;-58
2020/12/03 00:46:37;;;;;;;43.27;19.60;;;;;;;0.61;79.35;100671.98;1736215;80;21553;-56
2020/12/03 00:49:04;;;;;;;42.73;22.20;;;;;;;0.61;79.43;100673.74;1751403;80;22296;-56
2020/12/03 00:51:32;;;;;;;44.50;20.27;;;;;;;0.61;79.44;100674.63;1701317;82;21679;-56
2020/12/03 00:53:59;;;;;;;42.00;19.97;;;;;;;0.61;79.47;100673.30;1748295;80;21695;-59
2020/12/03 00:56:27;;;;;;;38.97;17.43;;;;;;;0.62;79.45;100671.55;1746000;80;21227;-58
2020/12/03 00:58:55;;;;;;;39.00;17.83;;;;;;;0.64;79.46;100668.04;1746435;80;21608;-58
2020/12/03 01:01:22;;;;;;;37.73;18.27;;;;;;;0.65;79.42;100666.28;1749879;80;21589;-57
2020/12/03 01:03:50;;;;;;;37.23;18.43;;;;;;;0.67;79.37;100672.05;1724820;80;21214;-56
2020/12/03 01:06:18;;;;;;;44.63;19.40;;;;;;;0.65;79.35;100666.28;1742874;80;21210;-55
2020/12/03 01:08:46;;;;;;;45.33;21.13;;;;;;;0.64;79.40;100668.04;1748843;80;21504;-55
2020/12/03 01:11:13;;;;;;;45.40;19.70;;;;;;;0.63;79.33;100664.94;1745730;80;21388;-54
2020/12/03 01:13:40;;;;;;;38.97;19.63;;;;;;;0.63;79.30;100665.38;1743568;80;21518;-57
2020/12/03 01:16:13;;;;;;;41.77;19.40;;;;;;;0.64;79.30;100665.83;1751141;80;21229;-55
2020/12/03 01:18:40;;;;;;;43.60;20.00;;;;;;;0.64;79.34;100660.09;1746640;80;21850;-54
2020/12/03 01:21:07;;;;;;;38.53;18.53;;;;;;;0.65;79.40;100654.36;1747410;80;21496;-58
2020/12/03 01:23:35;;;;;;;48.23;22.40;;;;;;;0.66;79.39;100657.02;1749309;80;23524;-54
2020/12/03 01:26:02;;;;;;;44.53;20.53;;;;;;;0.65;79.32;100651.27;1734013;80;21237;-57
2020/12/03 01:28:29;;;;;;;51.63;21.93;;;;;;;0.65;79.29;100657.89;1737212;80;21262;-55
2020/12/03 01:30:56;;;;;;;42.77;20.40;;;;;;;0.65;79.23;100656.56;1739380;80;21772;-55
2020/12/03 01:33:23;;;;;;;49.30;20.53;;;;;;;0.63;79.22;100654.34;1736569;80;21229;-58
2020/12/03 01:35:51;;;;;;;45.00;20.73;;;;;;;0.63;79.18;100653.02;1723726;81;21792;-56
2020/12/03 01:38:18;;;;;;;44.23;20.43;;;;;;;0.60;79.13;100652.98;1734750;80;21679;-57
2020/12/03 01:40:50;;;;;;;44.17;18.53;;;;;;;0.59;79.13;100653.89;1735253;80;21225;-54
2020/12/03 01:43:18;;;;;;;40.33;17.57;;;;;;;0.60;79.15;100652.09;1704072;82;21257;-55
2020/12/03 01:48:55;;;;;;;43.40;19.00;;;;;;;0.62;79.22;100651.67;1727952;80;21607;-57
2020/12/03 01:51:38;;;;;;;44.50;19.03;;;;;;;0.62;79.20;100645.94;1706286;81;21205;-56
2020/12/03 01:54:16;;;;;;;42.73;20.37;;;;;;;0.61;79.13;100649.46;1709702;81;21202;-58
2020/12/03 01:57:00;;;;;;;47.23;20.10;;;;;;;0.60;79.10;100643.70;1732654;80;21614;-57
2020/12/03 01:59:30;;;;;;;49.40;21.60;;;;;;;0.57;79.06;100642.83;1703314;81;21273;-58
2020/12/03 02:01:58;;;;;;;45.20;20.73;;;;;;;0.55;79.08;100646.78;1729563;80;21250;-55
2020/12/03 02:04:26;;;;;;;40.27;20.33;;;;;;;0.52;79.11;100642.78;1694697;81;21501;-55
2020/12/03 02:07:00;;;;;;;51.50;19.83;;;;;;;0.53;79.19;100645.88;1730881;80;21190;-58
2020/12/03 02:09:29;;;;;;;45.20;20.33;;;;;;;0.53;79.19;100651.18;1728068;80;21235;-56
2020/12/03 02:11:59;;;;;;;36.03;15.77;;;;;;;0.56;79.14;100651.64;1707640;81;21229;-57
2020/12/03 02:14:26;;;;;;;42.50;19.07;;;;;;;0.57;79.11;100652.98;1732922;80;21895;-55
2020/12/03 02:16:56;;;;;;;44.30;19.37;;;;;;;0.56;79.13;100649.88;1715595;81;21123;-58
2020/12/03 02:19:27;;;;;;;45.77;20.70;;;;;;;0.57;79.14;100652.98;1731513;80;21117;-57
2020/12/03 02:22:01;;;;;;;43.80;19.20;;;;;;;0.57;79.14;100650.77;1711584;81;21094;-55
2020/12/03 02:24:32;;;;;;;49.80;20.20;;;;;;;0.57;79.12;100656.07;1730027;80;21657;-54
2020/12/03 02:26:59;;;;;;;43.47;19.67;;;;;;;0.57;79.08;100652.98;1699620;81;22891;-56
2020/12/03 02:29:26;;;;;;;37.20;19.70;;;;;;;0.56;79.11;100652.53;1704109;81;21189;-57
2020/12/03 02:31:54;;;;;;;44.83;18.73;;;;;;;0.56;79.13;100652.97;1661735;82;21238;-56
2020/12/03 02:34:21;;;;;;;43.53;19.33;;;;;;;0.56;79.12;100650.32;1706222;81;21205;-54
2020/12/03 02:36:54;;;;;;;41.87;18.60;;;;;;;0.57;79.12;100645.04;1693884;82;21135;-56
2020/12/03 02:39:22;;;;;;;37.87;17.10;;;;;;;0.58;79.15;100648.14;1708972;81;21982;-56
2020/12/03 02:41:52;;;;;;;40.97;18.20;;;;;;;0.61;79.14;100648.13;1718856;81;21189;-56
2020/12/03 02:44:19;;;;;;;39.93;18.60;;;;;;;0.62;79.17;100647.27;1728777;81;21199;-56
2020/12/03 02:46:47;;;;;;;44.33;20.00;;;;;;;0.63;79.12;100645.06;1728799;81;21124;-57
2020/12/03 02:49:15;;;;;;;43.77;19.67;;;;;;;0.64;79.10;100642.86;1728958;81;21584;-56
2020/12/03 02:51:44;;;;;;;40.97;18.80;;;;;;;0.64;79.11;100636.68;1723399;81;21213;-57
2020/12/03 02:54:12;;;;;;;38.03;17.13;;;;;;;0.64;79.09;100641.98;1729925;81;21168;-55
2020/12/03 02:56:39;;;;;;;38.50;18.23;;;;;;;0.64;79.06;100648.17;1724461;81;21061;-55
2020/12/03 02:59:07;;;;;;;33.93;16.13;;;;;;;0.63;79.04;100637.55;1731322;81;21110;-57
2020/12/03 03:01:34;;;;;;;38.90;18.73;;;;;;;0.61;79.03;100640.63;1728953;81;21215;-57
2020/12/03 03:04:04;;;;;;;34.30;16.37;;;;;;;0.61;79.02;100646.81;1729123;81;21640;-57
2020/12/03 03:06:33;;;;;;;30.93;15.27;;;;;;;0.63;79.01;100644.17;1724146;81;22259;-57
2020/12/03 03:09:03;;;;;;;31.37;15.93;;;;;;;0.64;78.98;100644.19;1730996;81;21147;-56
2020/12/03 03:11:32;;;;;;;37.47;15.80;;;;;;;0.64;78.95;100643.30;1734355;81;21127;-56
2020/12/03 03:14:00;;;;;;;35.40;15.70;;;;;;;0.62;78.97;100643.72;1727044;81;21208;-57
2020/12/03 03:16:30;;;;;;;37.13;16.17;;;;;;;0.62;78.95;100643.29;1724860;81;21482;-56
2020/12/03 03:18:58;;;;;;;37.00;16.13;;;;;;;0.61;78.90;100640.19;1735417;81;21132;-56
2020/12/03 03:21:26;;;;;;;34.77;15.90;;;;;;;0.62;78.82;100639.75;1731236;81;21777;-56
2020/12/03 03:23:53;;;;;;;33.17;15.53;;;;;;;0.61;78.82;100635.33;1729288;81;21199;-56
2020/12/03 03:26:20;;;;;;;30.90;15.30;;;;;;;0.59;78.81;100638.43;1730419;79;21204;-55
2020/12/03 03:28:48;;;;;;;28.70;14.20;;;;;;;0.58;78.83;100633.56;1760370;79;21441;-55
2020/12/03 03:31:17;;;;;;;29.87;14.33;;;;;;;0.58;78.79;100634.89;1754098;79;21100;-56
2020/12/03 03:33:44;;;;;;;28.00;12.90;;;;;;;0.58;78.84;100640.19;1756605;79;21380;-56
2020/12/03 03:36:11;;;;;;;30.93;14.07;;;;;;;0.60;78.89;100637.52;1754659;79;21208;-56
2020/12/03 03:38:38;;;;;;;28.03;13.30;;;;;;;0.61;78.87;100639.30;1755395;79;21514;-56
2020/12/03 03:41:06;;;;;;;31.57;16.10;;;;;;;0.63;78.80;100635.79;1762435;78;22858;-56
2020/12/03 03:43:33;;;;;;;31.70;15.90;;;;;;;0.63;78.77;100630.49;1767744;78;21184;-56
2020/12/03 03:46:01;;;;;;;30.80;14.90;;;;;;;0.62;78.76;100632.69;1765612;78;21182;-56
2020/12/03 03:48:28;;;;;;;28.53;13.93;;;;;;;0.63;78.74;100630.92;1769641;78;21260;-57
2020/12/03 03:50:55;;;;;;;33.30;16.37;;;;;;;0.61;78.69;100641.52;1766130;78;21176;-54
2020/12/03 03:53:22;;;;;;;27.70;13.57;;;;;;;0.59;78.68;100637.99;1767943;78;21397;-55
2020/12/03 03:55:49;;;;;;;27.40;14.03;;;;;;;0.59;78.71;100635.78;1774149;78;21848;-56
2020/12/03 03:58:16;;;;;;;27.23;13.67;;;;;;;0.55;78.66;100644.13;1776417;78;21856;-55
2020/12/03 04:00:45;;;;;;;23.97;11.77;;;;;;;0.55;78.67;100636.63;1772661;78;21172;-55
2020/12/03 04:03:15;;;;;;;25.30;12.27;;;;;;;0.55;78.68;100637.52;1774668;78;21460;-56
2020/12/03 04:05:47;;;;;;;24.73;12.37;;;;;;;0.56;78.66;100638.40;1767287;78;22623;-55
2020/12/03 04:08:15;;;;;;;29.47;13.90;;;;;;;0.57;78.72;100638.84;1768827;78;21526;-57
2020/12/03 04:10:43;;;;;;;27.93;13.17;;;;;;;0.56;78.75;100628.69;1771672;78;21222;-56
2020/12/03 04:13:11;;;;;;;28.00;13.13;;;;;;;0.57;78.73;100630.91;1772594;78;21132;-55
2020/12/03 04:15:38;;;;;;;26.83;13.27;;;;;;;0.56;78.71;100629.12;1773855;79;21124;-57
2020/12/03 04:18:05;;;;;;;24.30;12.80;;;;;;;0.57;78.69;100636.20;1771826;78;21436;-55
2020/12/03 04:20:34;;;;;;;26.77;13.37;;;;;;;0.56;78.70;100630.45;1772491;78;21108;-54
2020/12/03 04:23:02;;;;;;;21.90;11.83;;;;;;;0.54;78.73;100626.46;1772055;78;22026;-56
2020/12/03 04:25:29;;;;;;;23.27;11.77;;;;;;;0.54;78.69;100626.89;1722942;81;21147;-56
2020/12/03 04:27:57;;;;;;;27.33;12.80;;;;;;;0.52;78.66;100623.34;1774067;78;21130;-56
2020/12/03 04:30:24;;;;;;;22.57;12.33;;;;;;;0.51;78.68;100629.08;1724623;81;22457;-56
2020/12/03 04:32:51;;;;;;;36.37;15.73;;;;;;;0.53;78.73;100628.66;1718747;81;21151;-56
2020/12/03 04:35:19;;;;;;;44.33;18.00;;;;;;;0.56;78.77;100635.75;1774945;78;21660;-56
2020/12/03 04:37:48;;;;;;;43.83;19.10;;;;;;;0.57;78.88;100633.55;1725019;81;21230;-56
2020/12/03 04:40:34;;;;;;;46.67;21.30;;;;;;;0.57;78.95;100637.53;1771764;78;21208;-55
2020/12/03 04:43:16;;;;;;;47.93;20.40;;;;;;;0.56;79.02;100637.96;1776979;78;21621;-56
2020/12/03 04:45:50;;;;;;;51.33;21.23;;;;;;;0.56;79.09;100643.27;1773940;78;21721;-55
2020/12/03 04:48:43;;;;;;;47.65;21.62;;;;;;;0.55;79.12;100642.81;1774840;78;21259;-56
2020/12/03 04:51:52;;;;;;;42.83;21.03;;;;;;;0.55;79.19;100652.52;1724106;81;21232;-57
2020/12/03 04:54:33;;;;;;;46.80;21.00;;;;;;;0.53;79.18;100644.55;1747317;79;21628;-56
2020/12/03 04:57:23;;;;;;;46.57;18.47;;;;;;;0.50;79.14;100643.23;1719096;81;22368;-56
2020/12/03 05:00:08;;;;;;;47.37;20.43;;;;;;;0.51;79.15;100641.47;1775344;78;21211;-56
2020/12/03 05:03:01;;;;;;;58.85;23.90;;;;;;;0.53;79.22;100633.95;1721907;81;21200;-57
2020/12/03 05:05:41;;;;;;;56.17;21.97;;;;;;;0.55;79.25;100642.81;1766801;78;21231;-57
2020/12/03 05:08:12;;;;;;;55.47;22.17;;;;;;;0.55;79.31;100641.48;1768484;78;21164;-56
2020/12/03 05:10:46;;;;;;;54.90;24.57;;;;;;;0.54;79.36;100640.14;1772076;78;22262;-56
2020/12/03 05:13:25;;;;;;;51.17;22.63;;;;;;;0.52;79.39;100629.53;1727434;81;21144;-55
2020/12/03 05:15:59;;;;;;;48.30;21.43;;;;;;;0.51;79.40;100635.70;1699649;81;21159;-56
2020/12/03 05:18:44;;;;;;;48.95;20.97;;;;;;;0.49;79.43;100637.48;1747032;79;21116;-56
2020/12/03 05:21:14;;;;;;;43.20;19.32;;;;;;;0.50;79.45;100639.26;1773482;78;21116;-57
2020/12/03 05:23:41;;;;;;;45.63;20.03;;;;;;;0.50;79.55;100637.94;1728946;81;21377;-56
2020/12/03 05:26:22;;;;;;;50.63;21.77;;;;;;;0.51;79.59;100638.82;1755243;80;21803;-56
2020/12/03 05:29:02;;;;;;;47.70;21.20;;;;;;;0.51;79.69;100642.33;1770926;79;21212;-55
2020/12/03 05:31:41;;;;;;;54.00;23.03;;;;;;;0.54;79.68;100642.80;1747390;79;21199;-55
2020/12/03 05:34:14;;;;;;;51.63;22.97;;;;;;;0.53;79.67;100643.66;1775574;78;21101;-56
2020/12/03 05:36:57;;;;;;;55.33;24.07;;;;;;;0.52;79.67;100648.08;1776661;79;21211;-56
2020/12/03 05:39:35;;;;;;;55.90;23.27;;;;;;;0.51;79.63;100644.97;1714773;81;21618;-56
2020/12/03 05:42:09;;;;;;;48.53;20.67;;;;;;;0.49;79.63;100646.75;1750862;79;21242;-57
2020/12/03 05:44:42;;;;;;;49.23;21.73;;;;;;;0.50;79.63;100648.97;1777986;78;21612;-56
2020/12/03 05:47:24;;;;;;;44.97;18.83;;;;;;;0.50;79.65;100647.20;1775748;78;21133;-55
2020/12/03 05:50:15;;;;;;;40.87;18.57;;;;;;;0.55;79.70;100643.24;1862056;74;26725;-57
2020/12/03 05:52:43;;;;;;;42.57;19.17;;;;;;;0.51;79.68;100651.59;1836747;75;21167;-58
2020/12/03 05:55:12;;;;;;;45.93;19.13;;;;;;;0.51;79.70;100656.89;1799999;77;21208;-56
2020/12/03 05:57:44;;;;;;;44.90;20.10;;;;;;;0.50;79.75;100662.21;1804759;77;21074;-56
2020/12/03 06:00:25;;;;;;;47.17;19.57;;;;;;;0.49;79.71;100657.34;1798813;77;21536;-56
2020/12/03 06:03:30;;;;;;;40.57;19.73;;;;;;;0.51;79.70;100657.37;1776005;78;21365;-56
2020/12/03 06:06:12;;;;;;;45.90;20.05;;;;;;;0.50;79.67;100657.80;1772930;78;21166;-55
2020/12/03 06:09:04;;;;;;;42.07;18.27;;;;;;;0.49;79.66;100653.38;1770304;78;22782;-56
2020/12/03 06:12:06;;;;;;;39.20;16.77;;;;;;;0.49;79.62;100657.78;1769647;78;21187;-56
2020/12/03 06:15:17;;;;;;;42.10;17.47;;;;;;;0.46;79.60;100657.31;1776631;78;22174;-57
2020/12/03 06:18:11;;;;;;;37.10;15.83;;;;;;;0.47;79.63;100653.80;1795901;77;21168;-56
2020/12/03 06:21:13;;;;;;;40.13;16.83;;;;;;;0.49;79.60;100653.81;1776700;77;21151;-56
2020/12/03 06:23:52;;;;;;;40.00;18.30;;;;;;;0.50;79.57;100657.80;1774270;78;21550;-55
2020/12/03 06:26:44;;;;;;;38.27;17.83;;;;;;;0.49;79.58;100653.81;1797541;77;21167;-55
2020/12/03 06:29:32;;;;;;;37.90;17.80;;;;;;;0.48;79.59;100660.87;1760279;79;21486;-57
2020/12/03 06:32:15;;;;;;;35.43;15.67;;;;;;;0.51;79.52;100658.69;1780146;78;21170;-55
2020/12/03 06:35:44;;;;;;;39.47;19.07;;;;;;;0.53;79.49;100657.80;1871683;75;27031;-57
2020/12/03 06:38:19;;;;;;;34.83;16.80;;;;;;;0.48;79.50;100650.27;1868393;74;21580;-57
2020/12/03 06:41:41;;;;;;;32.37;16.80;;;;;;;0.48;79.46;100655.57;1874219;74;21211;-57
2020/12/03 06:47:29;;;;;;;32.33;15.23;;;;;;;0.46;79.45;100653.78;1780839;78;21270;-57
2020/12/03 06:50:29;;;;;;;34.07;15.77;;;;;;;0.46;79.40;100664.37;1796199;77;21188;-56
2020/12/03 06:53:29;;;;;;;24.67;11.97;;;;;;;0.45;79.41;100662.16;1772758;77;21175;-57
2020/12/03 06:56:03;;;;;;;26.27;12.10;;;;;;;0.48;79.40;100663.52;1791616;77;23696;-57
2020/12/03 06:58:48;;;;;;;33.43;14.80;;;;;;;0.50;79.48;100669.72;1794255;77;21440;-55
2020/12/03 07:01:48;;;;;;;29.85;15.08;;;;;;;0.52;79.44;100670.59;1799057;77;21159;-56
2020/12/03 07:04:55;;;;;;;29.47;13.77;;;;;;;0.54;79.33;100667.96;1764347;77;21199;-57
2020/12/03 07:07:59;;;;;;;29.47;14.60;;;;;;;0.53;79.21;100666.19;1766039;79;21213;-56
2020/12/03 07:11:03;;;;;;;32.20;14.57;;;;;;;0.55;79.15;100674.59;1770956;78;23826;-57
2020/12/03 07:17:39;;;;;;;28.03;13.10;;;;;;;0.54;79.01;100675.47;1785679;78;21202;-57
2020/12/03 07:20:38;;;;;;;27.37;12.83;;;;;;;0.53;79.00;100678.11;1782189;78;21170;-57
2020/12/03 07:23:10;;;;;;;32.03;12.40;;;;;;;0.55;79.02;100677.25;1781986;78;21461;-56
2020/12/03 07:25:39;;;;;;;30.40;12.93;;;;;;;0.58;78.96;100674.63;1787751;78;21412;-56
2020/12/03 07:28:21;;;;;;;30.67;13.73;;;;;;;0.60;78.86;100677.27;1781172;78;21821;-55
2020/12/03 07:31:00;;;;;;;35.83;15.23;;;;;;;0.65;78.80;100679.52;1822845;75;27285;-57
2020/12/03 07:33:58;;;;;;;33.83;15.93;;;;;;;0.60;78.81;100680.80;1791868;77;21024;-57
2020/12/03 07:36:58;;;;;;;33.67;15.50;;;;;;;0.60;78.83;100682.13;1800273;77;21376;-55
2020/12/03 07:39:32;;;;;;;34.20;16.63;;;;;;;0.60;78.79;100683.45;1829403;75;21156;-56
2020/12/03 07:42:12;;;;;;;33.55;13.80;;;;;;;0.60;78.81;100686.09;1833115;75;21028;-55
2020/12/03 07:44:51;;;;;;;40.97;18.43;;;;;;;0.59;78.83;100685.69;1798636;76;21174;-55
2020/12/03 07:47:33;;;;;;;37.43;16.07;;;;;;;0.58;78.82;100679.93;1833283;75;21486;-58
2020/12/03 07:50:08;;;;;;;37.40;15.90;;;;;;;0.60;78.82;100680.80;1830740;75;21384;-55
2020/12/03 07:52:36;;;;;;;;;;;;;;;0.63;78.78;100675.53;1798993;75;21244;-55
2020/12/03 07:55:24;;;;;;;38.60;15.60;;;;;;;0.65;78.80;100678.20;1827283;75;20362;-56
2020/12/03 07:58:02;;;;;;;34.60;15.73;;;;;;;0.66;78.73;100672.03;1829015;75;21499;-56
2020/12/03 08:00:49;;;;;;;39.13;16.30;;;;;;;0.67;78.73;100672.05;1834140;75;21155;-56
2020/12/03 08:03:46;;;;;;;41.00;17.77;;;;;;;0.68;78.67;100672.94;1829896;75;21201;-55
2020/12/03 08:06:29;;;;;;;41.53;16.87;;;;;;;0.68;78.67;100671.14;1825886;75;21186;-56
2020/12/03 08:09:05;;;;;;;42.03;16.43;;;;;;;0.67;78.58;100674.70;1826149;75;21139;-57
2020/12/03 08:11:49;;;;;;;44.73;18.13;;;;;;;0.65;78.58;100673.79;1828596;75;21158;-55
2020/12/03 08:14:50;;;;;;;42.80;16.80;;;;;;;0.65;78.56;100674.23;1796619;78;21196;-56
2020/12/03 08:17:26;;;;;;;42.90;16.43;;;;;;;0.63;78.55;100671.56;1772820;78;21295;-56
2020/12/03 08:20:08;;;;;;;42.23;17.20;;;;;;;0.62;78.60;100674.20;1774564;78;21184;-55
2020/12/03 08:22:43;;;;;;;38.37;16.37;;;;;;;0.62;78.57;100668.45;1772828;78;21388;-56
2020/12/03 08:25:26;;;;;;;42.98;17.50;;;;;;;0.64;78.58;100671.13;1772696;78;21104;-56
2020/12/03 08:28:01;;;;;;;44.93;17.27;;;;;;;0.65;78.59;100665.84;1762456;78;21127;-56
2020/12/03 08:30:38;;;;;;;38.30;14.60;;;;;;;0.67;78.44;100663.20;1755409;79;22786;-55
2020/12/03 08:33:12;;;;;;;34.40;12.50;;;;;;;0.70;78.46;100667.18;1753718;79;21198;-56
2020/12/03 08:35:40;;;;;;;36.50;14.28;;;;;;;0.72;78.48;100663.67;1754861;79;21115;-56
2020/12/03 08:38:08;;;;;;;43.80;16.23;;;;;;;0.71;78.42;100657.92;1752980;79;21120;-56
2020/12/03 08:40:37;;;;;;;46.50;17.47;;;;;;;0.72;78.44;100654.83;1748128;80;21182;-55
2020/12/03 08:43:08;;;;;;;38.13;15.23;;;;;;;0.73;78.49;100656.61;1743869;80;21378;-56
2020/12/03 08:45:43;;;;;;;42.60;16.67;;;;;;;0.73;78.43;100648.66;1749910;80;21474;-57
2020/12/03 08:48:04;;;;;;;37.77;15.33;;;;;;;0.75;78.41;100641.17;1744769;80;21170;-56
2020/12/03 08:50:31;;;;;;;35.57;14.60;;;;;;;0.75;78.36;100640.28;1750741;80;21245;-56
2020/12/03 08:52:58;;;;;;;33.27;14.10;;;;;;;0.78;78.29;100632.77;1739128;80;22435;-56
2020/12/03 08:55:25;;;;;;;33.87;14.33;;;;;;;0.81;78.24;100635.01;1697512;80;22697;-57
2020/12/03 08:57:54;;;;;;;34.00;14.60;;;;;;;0.85;78.15;100627.97;1756228;79;21190;-57
2020/12/03 09:00:21;;;;;;;38.80;16.13;;;;;;;0.86;78.03;100625.30;1758471;79;22279;-57
2020/12/03 09:02:48;;;;;;;39.93;16.80;;;;;;;0.87;77.98;100624.86;1751333;79;21178;-56
2020/12/03 09:05:16;;;;;;;38.83;15.40;;;;;;;0.87;77.91;100615.15;1727782;81;21174;-56
2020/12/03 09:07:46;;;;;;;40.23;17.67;;;;;;;0.88;77.78;100614.27;1729972;81;21259;-58
2020/12/03 09:10:13;;;;;;;43.80;17.37;;;;;;;0.87;77.86;100611.17;1754891;79;21214;-57
2020/12/03 09:12:41;;;;;;;35.47;16.47;;;;;;;0.86;77.95;100605.42;1762709;79;22068;-56
2020/12/03 09:15:08;;;;;;;34.73;15.13;;;;;;;0.86;77.90;100608.08;1688615;81;21200;-58
2020/12/03 09:17:41;;;;;;;36.60;16.20;;;;;;;0.85;77.92;100608.95;1754787;79;21194;-58
2020/12/03 09:20:11;;;;;;;29.77;12.60;;;;;;;0.88;77.94;100614.27;1756705;79;21619;-57
2020/12/03 09:22:40;;;;;;;26.87;12.23;;;;;;;0.93;77.87;100612.98;1761505;79;21182;-56
2020/12/03 09:25:12;;;;;;;27.43;13.37;;;;;;;0.95;77.88;100620.05;1744877;80;21171;-56
2020/12/03 09:27:47;;;;;;;32.63;15.77;;;;;;;0.99;77.61;100611.23;1741916;80;21143;-58
2020/12/03 09:30:17;;;;;;;;;;;;;;;1.02;77.58;100607.73;1748016;80;21155;-55
2020/12/03 09:32:51;;;;;;;41.13;16.07;;;;;;;1.00;77.37;100599.76;1721662;81;22730;-57
2020/12/03 09:35:19;;;;;;;55.12;21.30;;;;;;;0.99;77.37;100590.03;1726843;81;21137;-57
2020/12/03 09:37:46;;;;;;;46.77;20.20;;;;;;;0.98;77.37;100589.58;1756227;78;21552;-56
2020/12/03 09:40:14;;;;;;;42.57;19.30;;;;;;;0.97;77.46;100597.08;1751777;80;21109;-56
2020/12/03 09:42:47;;;;;;;35.10;16.43;;;;;;;0.96;77.29;100598.40;1747939;80;21215;-58
2020/12/03 09:45:25;;;;;;;30.30;14.50;;;;;;;0.95;77.38;100599.27;1751577;80;21432;-57
2020/12/03 09:47:52;;;;;;;38.10;15.00;;;;;;;0.92;77.34;100601.50;1743604;80;22079;-56
2020/12/03 09:50:22;;;;;;;27.83;13.83;;;;;;;0.92;77.35;100604.14;1752421;80;21144;-56
2020/12/03 09:52:50;;;;;;;25.10;13.13;;;;;;;0.92;77.36;100608.56;1739858;80;21223;-56
2020/12/03 09:55:18;;;;;;;26.60;12.43;;;;;;;0.93;77.35;100604.59;1747312;80;21228;-56
2020/12/03 09:57:56;;;;;;;25.47;12.70;;;;;;;0.93;77.48;100592.67;1749871;80;21219;-58
2020/12/03 10:00:28;;;;;;;27.07;13.97;;;;;;;0.94;77.54;100589.11;1746370;80;22714;-57
2020/12/03 10:03:25;;;;;;;34.07;14.70;;;;;;;0.93;77.66;100596.64;1753823;80;21118;-58
2020/12/03 10:06:11;;;;;;;27.77;15.30;;;;;;;0.95;77.62;100593.97;1750951;80;21141;-56
2020/12/03 10:09:27;;;;;;;28.27;13.93;;;;;;;0.95;77.67;100592.65;1732826;80;21610;-58
2020/12/03 10:12:35;;;;;;;30.90;15.55;;;;;;;0.96;77.56;100582.49;1748036;80;21403;-58
2020/12/03 10:15:35;;;;;;;33.83;18.13;;;;;;;0.96;77.51;100586.03;1747571;80;21562;-56
2020/12/03 10:18:10;;;;;;;28.67;15.20;;;;;;;0.94;77.56;100578.50;1749828;80;21211;-58
2020/12/03 10:20:37;;;;;;;36.08;17.07;;;;;;;0.94;77.55;100575.85;1754274;80;21127;-59
2020/12/03 10:23:21;;;;;;;31.60;17.17;;;;;;;0.96;77.59;100587.36;1751455;80;21554;-57
2020/12/03 10:26:02;;;;;;;38.57;18.00;;;;;;;0.96;77.50;100586.47;1750123;80;21327;-57
2020/12/03 10:28:39;;;;;;;30.17;15.37;;;;;;;0.95;77.49;100591.32;1744150;80;21216;-57
2020/12/03 10:31:06;;;;;;;31.47;15.57;;;;;;;0.95;77.61;100585.58;1746897;80;21444;-57
2020/12/03 10:33:35;;;;;;;31.23;16.23;;;;;;;0.97;77.48;100584.27;1746167;80;21350;-57
2020/12/03 10:36:13;;;;;;;33.33;15.10;;;;;;;0.96;77.50;100586.03;1750092;80;21196;-58
2020/12/03 10:38:44;;;;;;;32.07;16.27;;;;;;;0.97;77.54;100581.62;1724364;80;21216;-56
2020/12/03 10:41:12;;;;;;;35.10;17.77;;;;;;;0.96;77.52;100585.14;1743882;80;21587;-57
2020/12/03 10:43:43;;;;;;;36.13;17.63;;;;;;;0.96;77.52;100579.84;1744310;80;21170;-58
2020/12/03 10:46:16;;;;;;;36.73;18.13;;;;;;;0.95;77.46;100574.98;1750290;80;21160;-57
2020/12/03 10:48:47;;;;;;;34.40;18.73;;;;;;;0.97;77.49;100572.34;1766988;78;21223;-57
2020/12/03 10:51:17;;;;;;;32.93;17.53;;;;;;;0.96;77.46;100567.91;1760722;79;21264;-56
2020/12/03 10:53:47;;;;;;;39.80;18.10;;;;;;;0.96;77.56;100564.83;1758179;79;21191;-56
2020/12/03 10:56:15;;;;;;;30.37;14.60;;;;;;;0.94;77.57;100557.73;1760978;79;21148;-56
2020/12/03 11:01:29;;;;;;;31.30;16.03;;;;;;;0.98;77.64;100545.84;1865759;75;26622;-56
2020/12/03 11:03:58;;;;;;;36.90;17.47;;;;;;;0.96;77.62;100556.88;1846208;76;21389;-57
2020/12/03 11:06:28;;;;;;;31.23;17.07;;;;;;;0.98;77.65;100554.23;1779650;78;21435;-58
2020/12/03 11:08:56;;;;;;;37.83;18.87;;;;;;;0.98;77.65;100540.98;1803336;78;21190;-56
2020/12/03 11:11:24;;;;;;;36.13;18.50;;;;;;;0.99;77.66;100549.37;1759794;78;21222;-56
2020/12/03 11:13:51;;;;;;;40.93;17.90;;;;;;;0.99;77.58;100539.66;1784385;79;21047;-55
2020/12/03 11:16:23;;;;;;;32.17;15.87;;;;;;;0.98;77.60;100545.84;1779390;79;22023;-58
2020/12/03 11:18:52;;;;;;;30.27;15.37;;;;;;;1.00;77.66;100555.13;1777344;78;21872;-57
2020/12/03 11:21:25;;;;;;;32.90;15.90;;;;;;;1.00;77.68;100557.34;1781766;79;21095;-57
2020/12/03 11:24:29;;;;;;;25.97;14.77;;;;;;;1.02;77.78;100553.38;1778530;79;21801;-57
2020/12/03 11:26:57;;;;;;;33.37;16.23;;;;;;;1.03;77.72;100553.80;1783526;79;21155;-57
2020/12/03 11:29:24;;;;;;;36.93;17.73;;;;;;;1.04;77.67;100551.59;1782652;79;21288;-56
2020/12/03 11:31:56;;;;;;;30.87;16.73;;;;;;;1.04;77.69;100545.84;1781329;79;22304;-57
2020/12/03 11:34:37;;;;;;;32.77;17.40;;;;;;;1.04;77.66;100555.56;1785051;79;21494;-56
2020/12/03 11:37:07;;;;;;;34.10;16.47;;;;;;;1.05;77.65;100553.36;1784968;79;21131;-58
2020/12/03 11:39:34;;;;;;;29.17;15.20;;;;;;;1.03;77.58;100549.81;1779446;79;21900;-55
2020/12/03 11:42:19;;;;;;;33.50;14.50;;;;;;;1.03;77.61;100545.84;1784774;79;21210;-56
2020/12/03 11:50:15;;;;;;;28.07;13.87;;;;;;;1.02;77.49;100542.77;1809406;78;21435;-58
2020/12/03 11:52:44;;;;;;;31.07;16.00;;;;;;;1.00;77.44;100541.87;1777340;79;21573;-56
2020/12/03 11:55:25;;;;;;;34.37;17.27;;;;;;;0.97;77.40;100544.50;1777400;79;21605;-56
2020/12/03 11:57:52;;;;;;;34.00;15.13;;;;;;;0.96;77.37;100547.59;1780002;79;21316;-56
2020/12/03 12:00:22;;;;;;;34.10;16.00;;;;;;;0.95;77.41;100550.23;1731978;79;21144;-58
2020/12/03 12:02:55;;;;;;;33.00;15.97;;;;;;;0.93;77.44;100548.05;1756756;79;22168;-57
2020/12/03 12:05:46;;;;;;;34.63;17.37;;;;;;;0.92;77.44;100544.94;1757785;80;21198;-58
2020/12/03 12:13:37;;;;;;;28.63;15.00;;;;;;;0.97;77.59;100545.83;1750729;80;22481;-56
2020/12/03 12:16:09;;;;;;;33.10;16.43;;;;;;;0.96;77.58;100543.62;1753366;80;21222;-56